Time;durP1;ratioP1;P1;durP2;ratioP2;P2;SDS_P1;SDS_P2;PMS_P1;PMS_P2;Temp;Humidity;BMP_temperature;BMP_pressure;BME280_temperature;BME280_humidity;BME280_pressure;Samples;Min_cycle;Max_cycle;Signal;HPM_P1;HPM_P2
2023/10/14 00:02:03;;;;;;;259.47;83.33;;;;;;;;;;4965856;28;20495;-50
2023/10/14 00:04:30;;;;;;;262.47;88.30;;;;;;;;;;4972375;28;20435;-48
2023/10/14 00:06:57;;;;;;;262.17;85.83;;;;;;;;;;4972579;28;20431;-48
2023/10/14 00:09:24;;;;;;;261.40;85.83;;;;;;;;;;4972631;28;20470;-49
2023/10/14 00:11:54;;;;;;;263.30;88.67;;;;;;;;;;4972702;28;20438;-47
2023/10/14 00:14:22;;;;;;;256.67;79.80;;;;;;;;;;4972370;28;20494;-48
2023/10/14 00:16:51;;;;;;;259.00;82.77;;;;;;;;;;4972736;28;20499;-48
2023/10/14 00:19:24;;;;;;;259.43;84.10;;;;;;;;;;4972533;28;20426;-48
2023/10/14 00:21:50;;;;;;;260.97;82.93;;;;;;;;;;4965208;28;20922;-47
2023/10/14 00:24:26;;;;;;;262.17;84.23;;;;;;;;;;4972188;28;20430;-48
2023/10/14 00:26:53;;;;;;;260.07;82.10;;;;;;;;;;4965701;28;20407;-48
2023/10/14 00:29:19;;;;;;;259.87;80.77;;;;;;;;;;4972328;28;20838;-47
2023/10/14 00:31:52;;;;;;;261.97;81.10;;;;;;;;;;4968847;28;20812;-48
2023/10/14 00:34:22;;;;;;;256.77;76.50;;;;;;;;;;4972129;28;20437;-47
2023/10/14 00:36:49;;;;;;;253.97;73.30;;;;;;;;;;4965020;28;20503;-47
2023/10/14 00:39:23;;;;;;;259.53;80.33;;;;;;;;;;4972591;28;20478;-47
2023/10/14 00:41:50;;;;;;;260.37;79.33;;;;;;;;;;4965037;28;20468;-48
2023/10/14 00:44:16;;;;;;;257.30;76.47;;;;;;;;;;4972030;28;20952;-47
2023/10/14 00:46:48;;;;;;;259.77;77.57;;;;;;;;;;4972247;28;21010;-49
2023/10/14 00:49:14;;;;;;;260.63;79.97;;;;;;;;;;4972367;28;20559;-48
2023/10/14 00:51:44;;;;;;;257.17;73.97;;;;;;;;;;4972101;28;20455;-47
2023/10/14 00:54:26;;;;;;;254.97;74.77;;;;;;;;;;4972028;28;20955;-47
2023/10/14 00:56:53;;;;;;;253.67;73.57;;;;;;;;;;4969569;28;20838;-48
2023/10/14 00:59:19;;;;;;;253.50;73.27;;;;;;;;;;4975682;28;20424;-48
2023/10/14 01:01:58;;;;;;;247.57;71.37;;;;;;;;;;4967247;28;20412;-48
2023/10/14 01:04:34;;;;;;;246.37;73.50;;;;;;;;;;4973593;28;20448;-48
2023/10/14 01:07:04;;;;;;;245.10;73.07;;;;;;;;;;4975604;28;20511;-48
2023/10/14 01:09:33;;;;;;;243.33;70.60;;;;;;;;;;4975677;28;20499;-47
2023/10/14 01:12:16;;;;;;;242.73;70.40;;;;;;;;;;4975381;28;20479;-48
2023/10/14 01:14:42;;;;;;;240.07;70.57;;;;;;;;;;4975160;28;20440;-47
2023/10/14 01:17:09;;;;;;;237.27;69.80;;;;;;;;;;4975586;28;20438;-47
2023/10/14 01:19:37;;;;;;;236.17;68.13;;;;;;;;;;4975245;28;20428;-47
2023/10/14 01:22:03;;;;;;;235.30;68.67;;;;;;;;;;4975206;28;20417;-47
2023/10/14 01:24:38;;;;;;;234.87;68.27;;;;;;;;;;4974945;28;20448;-47
2023/10/14 01:27:07;;;;;;;236.07;70.53;;;;;;;;;;4975331;28;20427;-47
2023/10/14 01:29:39;;;;;;;234.83;68.10;;;;;;;;;;4975143;28;20470;-48
2023/10/14 01:32:09;;;;;;;235.67;71.33;;;;;;;;;;4974940;28;20810;-48
2023/10/14 01:34:42;;;;;;;233.07;67.40;;;;;;;;;;4975013;28;20463;-47
2023/10/14 01:37:15;;;;;;;235.17;71.83;;;;;;;;;;4975080;28;20401;-48
2023/10/14 01:39:46;;;;;;;233.57;67.93;;;;;;;;;;4975102;28;20410;-48
2023/10/14 01:42:12;;;;;;;233.70;67.47;;;;;;;;;;4974817;28;20423;-47
2023/10/14 01:44:38;;;;;;;237.17;72.90;;;;;;;;;;4974439;28;20483;-48
2023/10/14 01:47:04;;;;;;;235.43;71.73;;;;;;;;;;4974829;28;20958;-49
2023/10/14 01:49:30;;;;;;;232.47;67.67;;;;;;;;;;4974620;28;20471;-48
2023/10/14 01:51:59;;;;;;;234.27;68.47;;;;;;;;;;4974756;28;20420;-47
2023/10/14 01:54:25;;;;;;;233.97;67.40;;;;;;;;;;4974397;28;20435;-47
2023/10/14 01:56:51;;;;;;;234.37;67.30;;;;;;;;;;4974605;28;20401;-48
2023/10/14 01:59:22;;;;;;;231.77;64.90;;;;;;;;;;4974582;28;20405;-48
2023/10/14 02:01:49;;;;;;;233.37;66.23;;;;;;;;;;4974503;28;20929;-48
2023/10/14 02:04:15;;;;;;;235.30;67.37;;;;;;;;;;4974199;28;20502;-48
2023/10/14 02:06:46;;;;;;;234.00;67.50;;;;;;;;;;4974360;28;20810;-48
2023/10/14 02:09:12;;;;;;;233.47;66.30;;;;;;;;;;4973400;28;20468;-47
2023/10/14 02:11:38;;;;;;;233.10;66.57;;;;;;;;;;4974012;28;20413;-48
2023/10/14 02:14:07;;;;;;;234.60;67.80;;;;;;;;;;4974087;28;20520;-47
2023/10/14 02:16:46;;;;;;;232.17;61.97;;;;;;;;;;4974211;28;20428;-48
2023/10/14 02:19:21;;;;;;;232.27;64.50;;;;;;;;;;4974244;28;20480;-47
2023/10/14 02:21:57;;;;;;;233.67;64.20;;;;;;;;;;4966951;28;20172;-47
2023/10/14 02:24:23;;;;;;;234.20;64.77;;;;;;;;;;4971172;28;20416;-47
2023/10/14 02:26:49;;;;;;;232.00;64.37;;;;;;;;;;4974129;28;20783;-48
2023/10/14 02:29:15;;;;;;;231.70;65.17;;;;;;;;;;4974058;28;20485;-48
2023/10/14 02:31:44;;;;;;;228.57;62.25;;;;;;;;;;4973916;28;20401;-47
2023/10/14 02:34:10;;;;;;;230.07;64.07;;;;;;;;;;4973691;28;20189;-48
2023/10/14 02:36:41;;;;;;;230.93;64.85;;;;;;;;;;4974073;28;20817;-48
2023/10/14 02:39:17;;;;;;;230.37;63.70;;;;;;;;;;4974030;28;20606;-47
2023/10/14 02:41:58;;;;;;;230.20;62.50;;;;;;;;;;4973679;28;20404;-49
2023/10/14 02:44:28;;;;;;;231.47;64.77;;;;;;;;;;4973429;28;20436;-49
2023/10/14 02:46:54;;;;;;;229.33;62.27;;;;;;;;;;4973672;28;20408;-48
2023/10/14 02:49:25;;;;;;;230.93;65.53;;;;;;;;;;4973502;28;20523;-48
2023/10/14 02:51:52;;;;;;;231.67;64.57;;;;;;;;;;4973622;28;20876;-48
2023/10/14 02:54:28;;;;;;;230.27;63.43;;;;;;;;;;4973578;28;20806;-48
2023/10/14 02:59:23;;;;;;;228.55;63.38;;;;;;;;;;4973272;28;20836;-48
2023/10/14 03:02:14;;;;;;;233.57;67.37;;;;;;;;;;4973377;28;20205;-47
2023/10/14 03:12:50;;;;;;;230.07;62.37;;;;;;;;;;4972272;28;20214;-48
2023/10/14 03:15:20;;;;;;;228.80;63.88;;;;;;;;;;4973439;28;20488;-48
2023/10/14 03:17:56;;;;;;;230.90;63.93;;;;;;;;;;4965592;28;20238;-47
2023/10/14 03:22:57;;;;;;;238.25;73.15;;;;;;;;;;4972880;28;20189;-48
2023/10/14 03:25:24;;;;;;;228.63;61.47;;;;;;;;;;4972958;28;20212;-47
2023/10/14 03:27:50;;;;;;;232.03;65.20;;;;;;;;;;4973064;28;20446;-49
2023/10/14 03:30:20;;;;;;;231.53;64.03;;;;;;;;;;4972967;28;20523;-48
2023/10/14 03:32:46;;;;;;;238.98;68.90;;;;;;;;;;4964820;28;20759;-48
2023/10/14 03:35:13;;;;;;;232.77;65.57;;;;;;;;;;4973243;28;20222;-48
2023/10/14 03:37:52;;;;;;;235.85;66.38;;;;;;;;;;4973704;28;20474;-48
2023/10/14 03:40:53;;;;;;;233.52;62.38;;;;;;;;;;4972930;28;20546;-48
2023/10/14 03:43:14;;;;;;;234.40;64.43;;;;;;;;;;4966231;28;20265;-47
2023/10/14 03:48:30;;;;;;;232.25;59.75;;;;;;;;;;4972771;28;20590;-48
2023/10/14 03:51:05;;;;;;;233.48;63.15;;;;;;;;;;4972927;28;20294;-47
2023/10/14 03:53:34;;;;;;;232.27;59.92;;;;;;;;;;4972361;28;20233;-48
2023/10/14 03:56:06;;;;;;;233.35;61.80;;;;;;;;;;4972736;28;20628;-47
2023/10/14 03:58:32;;;;;;;234.05;62.88;;;;;;;;;;4972759;28;20672;-47
2023/10/14 04:01:01;;;;;;;232.52;61.53;;;;;;;;;;4972639;28;20650;-47
2023/10/14 04:03:40;;;;;;;229.05;58.17;;;;;;;;;;4972233;28;20564;-47
2023/10/14 04:06:09;;;;;;;228.55;57.65;;;;;;;;;;4972541;28;20202;-48
2023/10/14 04:08:40;;;;;;;231.25;60.42;;;;;;;;;;4972536;28;20196;-47
2023/10/14 04:11:16;;;;;;;232.50;63.88;;;;;;;;;;4972717;28;20179;-48
2023/10/14 04:13:58;;;;;;;230.10;59.35;;;;;;;;;;4972267;28;20198;-48
2023/10/14 04:16:27;;;;;;;228.70;58.17;;;;;;;;;;4972529;28;20176;-48
2023/10/14 04:19:00;;;;;;;233.18;64.45;;;;;;;;;;4972651;28;20194;-48
2023/10/14 04:21:35;;;;;;;228.55;58.15;;;;;;;;;;4972563;28;20180;-48
2023/10/14 04:26:34;;;;;;;229.88;60.00;;;;;;;;;;4972637;28;20265;-48
2023/10/14 04:29:02;;;;;;;229.43;61.58;;;;;;;;;;4973618;28;20195;-48
2023/10/14 04:31:40;;;;;;;232.75;66.70;;;;;;;;;;4973219;28;20180;-49
2023/10/14 04:34:07;;;;;;;228.85;60.55;;;;;;;;;;4975903;28;20617;-47
2023/10/14 04:39:05;;;;;;;233.20;63.92;;;;;;;;;;4976057;28;20255;-48
2023/10/14 04:41:31;;;;;;;231.55;63.50;;;;;;;;;;4975921;28;20179;-48
2023/10/14 04:44:03;;;;;;;229.57;59.97;;;;;;;;;;4974490;28;20214;-47
2023/10/14 04:49:57;;;;;;;229.85;61.58;;;;;;;;;;4957726;28;20237;-48
2023/10/14 04:52:18;;;;;;;230.35;63.95;;;;;;;;;;4972858;28;20206;-48
2023/10/14 04:54:54;;;;;;;229.25;61.80;;;;;;;;;;4975357;28;20205;-48
2023/10/14 04:57:24;;;;;;;230.02;62.63;;;;;;;;;;4975902;28;20210;-48
2023/10/14 04:59:54;;;;;;;231.38;64.03;;;;;;;;;;4975783;28;20172;-48
2023/10/14 05:02:24;;;;;;;227.13;59.33;;;;;;;;;;4975576;28;20267;-48
2023/10/14 05:04:51;;;;;;;227.38;58.83;;;;;;;;;;4975446;28;20201;-47
2023/10/14 05:07:18;;;;;;;230.65;61.50;;;;;;;;;;4975458;28;20237;-47
2023/10/14 05:09:55;;;;;;;229.75;61.10;;;;;;;;;;4967511;28;20202;-48
2023/10/14 05:12:24;;;;;;;226.98;61.15;;;;;;;;;;4975893;28;20182;-48
2023/10/14 05:14:51;;;;;;;228.63;59.95;;;;;;;;;;4975036;28;20563;-47
2023/10/14 05:17:18;;;;;;;232.00;62.30;;;;;;;;;;4975498;28;20565;-48
2023/10/14 05:19:47;;;;;;;230.93;61.45;;;;;;;;;;4975233;28;20646;-47
2023/10/14 05:22:23;;;;;;;230.00;61.17;;;;;;;;;;4975262;28;20186;-47
2023/10/14 05:24:52;;;;;;;233.20;65.30;;;;;;;;;;4972844;28;20224;-47
2023/10/14 05:27:21;;;;;;;234.48;65.60;;;;;;;;;;4975120;28;20178;-48
2023/10/14 05:29:54;;;;;;;229.50;58.65;;;;;;;;;;4967555;28;20213;-48
2023/10/14 05:32:24;;;;;;;229.57;61.17;;;;;;;;;;4975211;28;20173;-47
2023/10/14 05:34:50;;;;;;;231.90;59.83;;;;;;;;;;4974903;28;20199;-48
2023/10/14 05:37:16;;;;;;;231.35;58.92;;;;;;;;;;4975091;28;20178;-48
2023/10/14 05:39:43;;;;;;;235.02;64.38;;;;;;;;;;4974892;28;20230;-47
2023/10/14 05:42:21;;;;;;;236.15;64.43;;;;;;;;;;4974650;28;20176;-47
2023/10/14 05:44:49;;;;;;;230.52;58.25;;;;;;;;;;4974680;28;20191;-48
2023/10/14 05:47:15;;;;;;;232.82;61.55;;;;;;;;;;4975052;28;20179;-49
2023/10/14 05:49:42;;;;;;;231.82;63.10;;;;;;;;;;4974702;28;20732;-47
2023/10/14 05:52:08;;;;;;;231.20;58.20;;;;;;;;;;4974682;28;20639;-48
2023/10/14 05:54:34;;;;;;;234.07;62.17;;;;;;;;;;4974783;28;20682;-48
2023/10/14 05:57:02;;;;;;;232.18;62.35;;;;;;;;;;4974804;28;20186;-48
2023/10/14 05:59:30;;;;;;;230.35;59.38;;;;;;;;;;4974662;28;20179;-48
2023/10/14 06:01:56;;;;;;;230.23;59.65;;;;;;;;;;4974523;28;20186;-48
2023/10/14 06:04:22;;;;;;;230.85;61.03;;;;;;;;;;4974335;28;20257;-48
2023/10/14 06:06:48;;;;;;;230.70;58.80;;;;;;;;;;4974366;28;20244;-48
2023/10/14 06:09:16;;;;;;;227.35;58.38;;;;;;;;;;4974293;28;20462;-49
2023/10/14 06:11:43;;;;;;;231.27;62.92;;;;;;;;;;4974296;28;20176;-49
2023/10/14 06:14:10;;;;;;;232.68;64.00;;;;;;;;;;4974083;28;20194;-48
2023/10/14 06:16:36;;;;;;;229.98;63.08;;;;;;;;;;4974322;28;20174;-48
2023/10/14 06:19:04;;;;;;;228.07;58.90;;;;;;;;;;4974394;28;20173;-49
2023/10/14 06:21:33;;;;;;;225.75;59.05;;;;;;;;;;4974169;28;20961;-48
2023/10/14 06:24:00;;;;;;;228.75;60.13;;;;;;;;;;4967942;28;20248;-48
2023/10/14 06:26:26;;;;;;;229.05;60.78;;;;;;;;;;4974140;28;20178;-48
2023/10/14 06:28:56;;;;;;;228.30;59.25;;;;;;;;;;4973976;28;20273;-48
2023/10/14 06:31:22;;;;;;;229.98;60.53;;;;;;;;;;4973371;28;20562;-48
2023/10/14 06:33:48;;;;;;;227.82;60.20;;;;;;;;;;4970871;28;20209;-49
2023/10/14 06:36:14;;;;;;;231.15;61.13;;;;;;;;;;4973777;28;20217;-48
2023/10/14 06:38:44;;;;;;;232.50;61.28;;;;;;;;;;4972369;28;20258;-49
2023/10/14 06:41:16;;;;;;;234.52;65.47;;;;;;;;;;4972193;28;20200;-47
2023/10/14 06:43:43;;;;;;;233.15;66.03;;;;;;;;;;4973583;28;20195;-48
2023/10/14 06:46:11;;;;;;;227.20;60.65;;;;;;;;;;4972894;28;20177;-47
2023/10/14 06:48:41;;;;;;;230.27;64.18;;;;;;;;;;4972624;28;20571;-48
2023/10/14 06:51:09;;;;;;;226.15;60.10;;;;;;;;;;4973722;28;20183;-48
2023/10/14 06:53:35;;;;;;;226.70;59.70;;;;;;;;;;4972967;28;20208;-48
2023/10/14 06:56:01;;;;;;;227.93;61.17;;;;;;;;;;4973313;28;20684;-48
2023/10/14 06:58:28;;;;;;;224.27;59.40;;;;;;;;;;4973549;28;20642;-48
2023/10/14 07:00:56;;;;;;;229.63;65.75;;;;;;;;;;4973526;28;20803;-48
2023/10/14 07:03:22;;;;;;;227.05;61.75;;;;;;;;;;4971849;28;20571;-48
2023/10/14 07:05:56;;;;;;;226.90;60.35;;;;;;;;;;4973448;28;20197;-47
2023/10/14 07:08:23;;;;;;;227.20;63.10;;;;;;;;;;4973496;28;20171;-47
2023/10/14 07:10:52;;;;;;;227.73;62.88;;;;;;;;;;4973520;28;20600;-47
2023/10/14 07:13:19;;;;;;;227.88;62.60;;;;;;;;;;4973500;28;20178;-47
2023/10/14 07:15:45;;;;;;;227.30;62.75;;;;;;;;;;4965274;28;20172;-47
2023/10/14 07:18:14;;;;;;;227.17;62.37;;;;;;;;;;4973250;28;20233;-48
2023/10/14 07:20:43;;;;;;;228.93;66.20;;;;;;;;;;4973310;28;20418;-48
2023/10/14 07:23:09;;;;;;;228.63;64.45;;;;;;;;;;4973234;28;20595;-48
2023/10/14 07:25:40;;;;;;;226.77;60.50;;;;;;;;;;4971981;28;20190;-48
2023/10/14 07:28:15;;;;;;;230.10;66.93;;;;;;;;;;4973112;28;20171;-47
2023/10/14 07:30:46;;;;;;;226.48;60.60;;;;;;;;;;4972943;28;20254;-48
2023/10/14 07:33:12;;;;;;;230.10;64.72;;;;;;;;;;4972874;28;20254;-47
2023/10/14 07:35:40;;;;;;;230.57;63.17;;;;;;;;;;4972876;28;20175;-48
2023/10/14 07:38:06;;;;;;;227.60;63.92;;;;;;;;;;4972922;28;20175;-48
2023/10/14 07:40:34;;;;;;;228.05;64.15;;;;;;;;;;4972846;28;20218;-49
2023/10/14 07:43:07;;;;;;;231.77;64.50;;;;;;;;;;4972512;28;20166;-48
2023/10/14 07:45:52;;;;;;;229.90;63.47;;;;;;;;;;4972979;28;20235;-48
2023/10/14 07:48:19;;;;;;;228.27;62.63;;;;;;;;;;4969542;28;20171;-48
2023/10/14 07:50:46;;;;;;;225.75;60.30;;;;;;;;;;4972681;28;20174;-48
2023/10/14 07:53:13;;;;;;;226.50;60.72;;;;;;;;;;4972275;28;20175;-47
2023/10/14 07:55:42;;;;;;;227.77;61.40;;;;;;;;;;4972856;28;20185;-48
2023/10/14 07:58:08;;;;;;;227.60;62.58;;;;;;;;;;4972651;28;20182;-48
2023/10/14 08:00:41;;;;;;;227.60;61.30;;;;;;;;;;4972771;28;20184;-48
2023/10/14 08:03:15;;;;;;;233.73;67.95;;;;;;;;;;4972422;28;20571;-47
2023/10/14 08:05:41;;;;;;;232.73;67.45;;;;;;;;;;4972556;28;20181;-48
2023/10/14 08:08:11;;;;;;;227.68;58.90;;;;;;;;;;4973535;28;20186;-48
2023/10/14 08:10:41;;;;;;;228.07;62.60;;;;;;;;;;4970583;28;20198;-48
2023/10/14 08:13:08;;;;;;;231.05;63.63;;;;;;;;;;4976195;28;20168;-48
2023/10/14 08:15:35;;;;;;;225.52;59.53;;;;;;;;;;4976542;28;20222;-48
2023/10/14 08:18:04;;;;;;;226.15;59.55;;;;;;;;;;4976561;28;20194;-48
2023/10/14 08:20:31;;;;;;;227.57;60.17;;;;;;;;;;4976321;28;20604;-47
2023/10/14 08:22:57;;;;;;;233.10;64.80;;;;;;;;;;4976146;28;20219;-48
2023/10/14 08:25:25;;;;;;;228.48;63.38;;;;;;;;;;4976179;28;20709;-48
2023/10/14 08:27:52;;;;;;;228.07;59.42;;;;;;;;;;4976390;28;20588;-47
2023/10/14 08:30:18;;;;;;;231.20;64.63;;;;;;;;;;4976347;28;20223;-48
2023/10/14 08:32:44;;;;;;;226.43;61.13;;;;;;;;;;4975992;28;20643;-47
2023/10/14 08:35:17;;;;;;;228.77;63.60;;;;;;;;;;4976146;28;20464;-47
2023/10/14 08:37:52;;;;;;;228.80;63.42;;;;;;;;;;4976197;28;20187;-48
2023/10/14 08:40:20;;;;;;;229.68;64.43;;;;;;;;;;4976087;28;20178;-47
2023/10/14 08:42:48;;;;;;;232.30;65.35;;;;;;;;;;4974000;28;20556;-48
2023/10/14 08:45:16;;;;;;;226.52;60.35;;;;;;;;;;4975886;28;20223;-48
2023/10/14 08:47:42;;;;;;;230.37;64.20;;;;;;;;;;4976248;28;20177;-48
2023/10/14 08:50:09;;;;;;;229.37;62.67;;;;;;;;;;4976050;28;20466;-48
2023/10/14 08:52:37;;;;;;;231.50;64.88;;;;;;;;;;4975782;28;20408;-48
2023/10/14 08:55:06;;;;;;;231.05;64.35;;;;;;;;;;4975557;28;20185;-47
2023/10/14 08:57:32;;;;;;;232.18;65.70;;;;;;;;;;4979444;28;20168;-48
2023/10/14 08:59:58;;;;;;;234.97;69.17;;;;;;;;;;4975555;28;20296;-47
2023/10/14 09:02:25;;;;;;;232.87;65.70;;;;;;;;;;4975729;28;20486;-47
2023/10/14 09:04:51;;;;;;;234.07;67.10;;;;;;;;;;4975472;28;20439;-48
2023/10/14 09:07:22;;;;;;;230.73;65.40;;;;;;;;;;4975577;28;20446;-48
2023/10/14 09:09:53;;;;;;;232.63;68.10;;;;;;;;;;4975606;28;20198;-48
2023/10/14 09:12:19;;;;;;;235.33;69.80;;;;;;;;;;4975610;28;20250;-48
2023/10/14 09:14:44;;;;;;;236.23;75.17;;;;;;;;;;4975541;28;20560;-49
2023/10/14 09:17:11;;;;;;;236.07;77.13;;;;;;;;;;4975007;28;20454;-49
2023/10/14 09:19:43;;;;;;;234.53;75.57;;;;;;;;;;4975374;28;20937;-48
2023/10/14 09:22:19;;;;;;;236.80;80.90;;;;;;;;;;4975357;28;20420;-49
2023/10/14 09:24:45;;;;;;;234.73;79.73;;;;;;;;;;4975054;28;21025;-48
2023/10/14 09:27:11;;;;;;;233.37;76.70;;;;;;;;;;4975360;28;20417;-50
2023/10/14 09:29:37;;;;;;;236.17;82.30;;;;;;;;;;4975206;28;20468;-50
2023/10/14 09:32:05;;;;;;;235.77;83.63;;;;;;;;;;4975268;28;20405;-48
2023/10/14 09:34:31;;;;;;;240.30;92.37;;;;;;;;;;4975118;28;20422;-48
2023/10/14 09:36:58;;;;;;;237.93;84.87;;;;;;;;;;4975748;28;20424;-49
2023/10/14 09:39:28;;;;;;;240.27;87.57;;;;;;;;;;4974839;28;20421;-49
2023/10/14 09:41:54;;;;;;;238.57;86.87;;;;;;;;;;4975128;28;20421;-48
2023/10/14 09:44:22;;;;;;;236.23;83.50;;;;;;;;;;4974931;28;20447;-48
2023/10/14 09:46:49;;;;;;;236.90;82.00;;;;;;;;;;4975077;28;20422;-48
2023/10/14 09:49:16;;;;;;;236.10;81.70;;;;;;;;;;4974909;28;20561;-48
2023/10/14 09:51:48;;;;;;;240.80;84.00;;;;;;;;;;4974828;28;20407;-49
2023/10/14 09:54:14;;;;;;;239.63;83.67;;;;;;;;;;4974478;28;20456;-49
2023/10/14 09:56:40;;;;;;;239.60;82.13;;;;;;;;;;4974752;28;20450;-49
2023/10/14 09:59:08;;;;;;;234.67;77.17;;;;;;;;;;4974897;28;20539;-49
2023/10/14 10:01:34;;;;;;;233.10;70.17;;;;;;;;;;4974666;28;20428;-49
2023/10/14 10:04:06;;;;;;;234.83;73.90;;;;;;;;;;4974294;28;21029;-48
2023/10/14 10:06:51;;;;;;;239.88;77.70;;;;;;;;;;4974329;28;20482;-48
2023/10/14 10:09:35;;;;;;;235.65;71.65;;;;;;;;;;4974328;28;20215;-49
2023/10/14 10:12:04;;;;;;;232.43;68.47;;;;;;;;;;4974480;28;20177;-48
2023/10/14 10:14:36;;;;;;;232.37;67.27;;;;;;;;;;4974250;28;20431;-49
2023/10/14 10:17:09;;;;;;;233.10;67.70;;;;;;;;;;4974332;28;20389;-49
2023/10/14 10:19:53;;;;;;;233.03;71.73;;;;;;;;;;4974396;28;20423;-49
2023/10/14 10:22:20;;;;;;;237.00;77.17;;;;;;;;;;4955031;29;20436;-50
2023/10/14 10:24:47;;;;;;;237.50;80.53;;;;;;;;;;4973452;28;20494;-49
2023/10/14 10:27:14;;;;;;;235.43;78.07;;;;;;;;;;4974220;28;20412;-49
2023/10/14 10:29:42;;;;;;;234.67;75.90;;;;;;;;;;4973192;28;20461;-48
2023/10/14 10:32:12;;;;;;;236.93;78.50;;;;;;;;;;4974087;28;20419;-48
2023/10/14 10:34:57;;;;;;;237.93;77.03;;;;;;;;;;4970204;28;20429;-48
2023/10/14 10:37:27;;;;;;;234.80;77.47;;;;;;;;;;4968427;28;20724;-49
2023/10/14 10:39:54;;;;;;;234.40;75.90;;;;;;;;;;4973725;28;20488;-48
2023/10/14 10:42:20;;;;;;;242.17;84.63;;;;;;;;;;4972842;28;20414;-49
2023/10/14 10:44:46;;;;;;;235.67;76.97;;;;;;;;;;4972847;28;20436;-49
2023/10/14 10:47:15;;;;;;;241.90;85.00;;;;;;;;;;4972708;28;20512;-48
2023/10/14 10:49:56;;;;;;;240.70;84.73;;;;;;;;;;4973303;28;20559;-49
2023/10/14 10:52:24;;;;;;;245.13;91.27;;;;;;;;;;4971856;28;20424;-49
2023/10/14 10:54:55;;;;;;;242.20;91.17;;;;;;;;;;4973339;28;20436;-49
2023/10/14 10:57:21;;;;;;;242.27;93.77;;;;;;;;;;4973743;28;20407;-49
2023/10/14 10:59:47;;;;;;;246.80;99.50;;;;;;;;;;4962052;28;20496;-50
2023/10/14 11:02:15;;;;;;;243.97;97.47;;;;;;;;;;4973554;28;20413;-49
2023/10/14 11:04:43;;;;;;;243.30;95.67;;;;;;;;;;4973324;28;20955;-49
2023/10/14 11:07:14;;;;;;;244.90;98.93;;;;;;;;;;4973526;28;20429;-49
2023/10/14 11:09:40;;;;;;;246.73;100.50;;;;;;;;;;4954313;28;20579;-49
2023/10/14 11:12:10;;;;;;;239.43;90.87;;;;;;;;;;4970570;28;20495;-49
2023/10/14 11:14:36;;;;;;;238.20;88.90;;;;;;;;;;4973313;28;20540;-49
2023/10/14 11:17:02;;;;;;;241.83;93.20;;;;;;;;;;4973457;28;20448;-49
2023/10/14 11:19:32;;;;;;;241.43;93.77;;;;;;;;;;4973652;28;20424;-49
2023/10/14 11:21:58;;;;;;;242.67;92.87;;;;;;;;;;4973255;28;20419;-48
2023/10/14 11:24:27;;;;;;;241.97;92.03;;;;;;;;;;4973030;28;20518;-48
2023/10/14 11:26:55;;;;;;;240.43;84.27;;;;;;;;;;4973273;28;20444;-48
2023/10/14 11:29:24;;;;;;;237.07;82.47;;;;;;;;;;4966463;28;20449;-48
2023/10/14 11:31:53;;;;;;;241.23;85.50;;;;;;;;;;4972520;28;20424;-48
2023/10/14 11:34:20;;;;;;;236.37;76.77;;;;;;;;;;4971104;28;20445;-49
2023/10/14 11:36:48;;;;;;;237.67;78.40;;;;;;;;;;4972311;28;20903;-48
2023/10/14 11:39:18;;;;;;;238.87;77.17;;;;;;;;;;4971223;28;20686;-49
2023/10/14 11:41:44;;;;;;;235.77;75.67;;;;;;;;;;4972092;28;20512;-48
2023/10/14 11:44:11;;;;;;;239.70;80.70;;;;;;;;;;4972793;28;20448;-48
2023/10/14 11:46:40;;;;;;;237.90;77.20;;;;;;;;;;4972878;28;20403;-48
2023/10/14 11:49:12;;;;;;;234.53;71.53;;;;;;;;;;4973026;28;20676;-49
2023/10/14 11:51:42;;;;;;;238.80;80.85;;;;;;;;;;4972851;28;20416;-49
2023/10/14 11:54:11;;;;;;;237.30;75.87;;;;;;;;;;4972563;28;20194;-48
2023/10/14 11:56:37;;;;;;;241.40;85.40;;;;;;;;;;4973192;28;20418;-49
2023/10/14 11:59:04;;;;;;;236.63;82.23;;;;;;;;;;4972675;28;20422;-49
2023/10/14 12:01:33;;;;;;;238.97;88.83;;;;;;;;;;4972701;28;20429;-48
2023/10/14 12:03:59;;;;;;;243.37;93.30;;;;;;;;;;4972538;28;20437;-49
2023/10/14 12:06:27;;;;;;;242.57;91.40;;;;;;;;;;4972635;28;20807;-49
2023/10/14 12:08:53;;;;;;;243.80;90.73;;;;;;;;;;4972739;28;20553;-49
2023/10/14 12:11:19;;;;;;;238.00;82.47;;;;;;;;;;4972874;28;20412;-48
2023/10/14 12:13:48;;;;;;;239.60;84.83;;;;;;;;;;4969654;28;20429;-49
2023/10/14 12:16:14;;;;;;;241.27;85.33;;;;;;;;;;4972758;28;20913;-49
2023/10/14 12:18:42;;;;;;;247.53;92.00;;;;;;;;;;4971363;28;20423;-48
2023/10/14 12:21:07;;;;;;;247.33;96.77;;;;;;;;;;4965187;28;20778;-49
2023/10/14 12:23:34;;;;;;;243.40;92.33;;;;;;;;;;4969942;28;20525;-48
2023/10/14 12:26:01;;;;;;;245.57;97.60;;;;;;;;;;4972368;28;20401;-48
2023/10/14 12:28:30;;;;;;;245.07;99.00;;;;;;;;;;4972620;28;20417;-49
2023/10/14 12:30:58;;;;;;;240.07;92.27;;;;;;;;;;4961558;28;20416;-48
2023/10/14 12:33:29;;;;;;;250.97;99.93;;;;;;;;;;4970304;28;20425;-50
2023/10/14 12:35:57;;;;;;;243.40;96.57;;;;;;;;;;4972477;28;20393;-49
2023/10/14 12:38:26;;;;;;;245.53;97.60;;;;;;;;;;4970014;28;20511;-49
2023/10/14 12:40:53;;;;;;;243.17;94.47;;;;;;;;;;4970195;28;20420;-49
2023/10/14 12:43:27;;;;;;;244.17;95.53;;;;;;;;;;4969854;28;20984;-49
2023/10/14 12:46:02;;;;;;;244.00;95.90;;;;;;;;;;4972496;28;20922;-49
2023/10/14 12:48:28;;;;;;;243.83;95.83;;;;;;;;;;4958019;28;20763;-49
2023/10/14 12:50:54;;;;;;;240.80;91.47;;;;;;;;;;4968189;28;20463;-49
2023/10/14 12:53:20;;;;;;;247.80;96.77;;;;;;;;;;4968671;28;20424;-48
2023/10/14 12:55:46;;;;;;;239.97;91.30;;;;;;;;;;4975840;28;20405;-49
2023/10/14 12:58:12;;;;;;;244.77;100.30;;;;;;;;;;4975804;28;20406;-48
2023/10/14 13:00:39;;;;;;;245.97;100.97;;;;;;;;;;4971508;28;20425;-48
2023/10/14 13:03:09;;;;;;;244.03;96.57;;;;;;;;;;4971504;28;20421;-49
2023/10/14 13:05:35;;;;;;;278.80;108.67;;;;;;;;;;4973908;28;20425;-49
2023/10/14 13:08:02;;;;;;;275.73;109.30;;;;;;;;;;4966444;28;20924;-49
2023/10/14 13:10:28;;;;;;;274.57;110.33;;;;;;;;;;4966220;28;20468;-49
2023/10/14 13:12:58;;;;;;;281.57;118.37;;;;;;;;;;4970200;28;20504;-49
2023/10/14 13:15:28;;;;;;;279.23;118.13;;;;;;;;;;4973378;28;20436;-49
2023/10/14 13:17:59;;;;;;;279.77;119.43;;;;;;;;;;4975614;28;20842;-49
2023/10/14 13:20:29;;;;;;;283.17;122.60;;;;;;;;;;4975161;28;20414;-49
2023/10/14 13:22:58;;;;;;;286.17;127.43;;;;;;;;;;4973474;28;20424;-49
2023/10/14 13:25:25;;;;;;;277.20;113.97;;;;;;;;;;4964386;28;21017;-49
2023/10/14 13:27:51;;;;;;;279.70;117.80;;;;;;;;;;4975116;28;20411;-49
2023/10/14 13:30:22;;;;;;;278.33;117.40;;;;;;;;;;4974361;28;20458;-49
2023/10/14 13:32:51;;;;;;;279.30;119.70;;;;;;;;;;4975003;28;20415;-50
2023/10/14 13:35:16;;;;;;;278.63;119.20;;;;;;;;;;4975044;28;20446;-49
2023/10/14 13:37:43;;;;;;;275.20;114.60;;;;;;;;;;4975138;28;20411;-49
2023/10/14 13:40:10;;;;;;;277.57;116.57;;;;;;;;;;4975074;28;20423;-48
2023/10/14 13:42:36;;;;;;;274.70;115.40;;;;;;;;;;4975085;28;20416;-49
2023/10/14 13:45:04;;;;;;;276.00;119.53;;;;;;;;;;4974914;28;20438;-49
2023/10/14 13:47:30;;;;;;;279.17;120.97;;;;;;;;;;4988313;28;20424;-48
2023/10/14 13:49:58;;;;;;;274.10;114.47;;;;;;;;;;4974886;28;20512;-49
2023/10/14 13:52:24;;;;;;;274.70;113.67;;;;;;;;;;4975002;28;20489;-49
2023/10/14 13:54:50;;;;;;;272.93;111.00;;;;;;;;;;4974614;28;20495;-49
2023/10/14 13:57:17;;;;;;;276.47;114.80;;;;;;;;;;4974951;28;20431;-49
2023/10/14 13:59:44;;;;;;;269.23;103.00;;;;;;;;;;4974655;28;20509;-48
2023/10/14 14:02:09;;;;;;;269.50;102.00;;;;;;;;;;4974722;28;20943;-49
2023/10/14 14:04:35;;;;;;;270.07;100.43;;;;;;;;;;4974275;28;20491;-49
2023/10/14 14:07:01;;;;;;;270.43;101.27;;;;;;;;;;4974653;28;20433;-49
2023/10/14 14:09:30;;;;;;;273.87;104.67;;;;;;;;;;4974486;28;20807;-49
2023/10/14 14:11:56;;;;;;;267.73;95.20;;;;;;;;;;4974639;28;20913;-48
2023/10/14 14:14:23;;;;;;;266.43;95.00;;;;;;;;;;4974200;28;20430;-50
2023/10/14 14:16:49;;;;;;;270.27;99.63;;;;;;;;;;4974354;28;20957;-49
2023/10/14 14:19:15;;;;;;;272.13;99.83;;;;;;;;;;4974655;28;20756;-48
2023/10/14 14:21:44;;;;;;;265.17;90.07;;;;;;;;;;4974319;28;20421;-48
2023/10/14 14:24:10;;;;;;;266.43;90.97;;;;;;;;;;4974061;28;20438;-48
2023/10/14 14:26:36;;;;;;;262.80;88.27;;;;;;;;;;4974268;28;20418;-49
2023/10/14 14:29:03;;;;;;;264.87;91.60;;;;;;;;;;4974096;28;20459;-49
2023/10/14 14:31:30;;;;;;;264.43;91.40;;;;;;;;;;4974282;28;20402;-48
2023/10/14 14:33:56;;;;;;;271.33;97.83;;;;;;;;;;4973822;28;20435;-49
2023/10/14 14:36:22;;;;;;;268.60;99.90;;;;;;;;;;4974164;28;20474;-49
2023/10/14 14:38:49;;;;;;;265.80;96.13;;;;;;;;;;4974118;28;20418;-49